createdAt,value
2019-03-15T00:00:39.267Z,3.33
2019-03-15T00:03:07.976Z,2.40
2019-03-15T00:05:36.795Z,2.52
2019-03-15T00:08:06.422Z,2.40
2019-03-15T00:10:35.469Z,2.87
2019-03-15T00:13:05.204Z,2.65
2019-03-15T00:15:36.016Z,2.83
2019-03-15T00:18:05.060Z,2.60
2019-03-15T00:20:36.156Z,2.92
2019-03-15T00:23:05.028Z,2.72
2019-03-15T00:25:33.842Z,2.70
2019-03-15T00:28:02.581Z,3.30
2019-03-15T00:30:31.378Z,2.33
2019-03-15T00:33:00.157Z,3.02
2019-03-15T00:35:28.769Z,3.47
2019-03-15T00:37:57.475Z,2.85
2019-03-15T00:40:26.112Z,2.50
2019-03-15T00:42:54.761Z,2.40
2019-03-15T00:45:23.360Z,2.42
2019-03-15T00:47:51.987Z,2.90
2019-03-15T00:50:20.605Z,2.10
2019-03-15T00:52:49.218Z,2.87
2019-03-15T00:55:18.143Z,2.35
2019-03-15T00:57:48.683Z,2.83
2019-03-15T01:00:17.446Z,2.25
2019-03-15T01:02:46.144Z,2.58
2019-03-15T01:05:14.884Z,3.15
2019-03-15T01:07:43.478Z,3.08
2019-03-15T01:10:12.737Z,2.27
2019-03-15T01:12:41.340Z,3.00
2019-03-15T01:15:10.391Z,1.85
2019-03-15T01:17:39.004Z,3.05
2019-03-15T01:20:07.790Z,3.83
2019-03-15T01:22:36.426Z,2.05
2019-03-15T01:25:05.235Z,2.98
2019-03-15T01:27:33.888Z,2.42
2019-03-15T01:30:02.485Z,3.02
2019-03-15T01:32:31.097Z,2.52
2019-03-15T01:34:59.732Z,2.85
2019-03-15T01:37:28.389Z,2.10
2019-03-15T01:39:56.988Z,2.72
2019-03-15T01:42:25.655Z,3.80
2019-03-15T01:44:54.312Z,2.70
2019-03-15T01:47:22.895Z,2.27
2019-03-15T01:49:51.522Z,2.40
2019-03-15T01:52:20.123Z,3.25
2019-03-15T01:54:48.747Z,2.90
2019-03-15T01:57:17.358Z,3.17
2019-03-15T01:59:45.963Z,1.60
2019-03-15T02:02:14.594Z,2.47
2019-03-15T02:04:43.187Z,1.90
2019-03-15T02:07:11.780Z,2.10
2019-03-15T02:09:40.399Z,2.37
2019-03-15T02:12:09.012Z,2.58
2019-03-15T02:14:37.641Z,2.90
2019-03-15T02:17:06.254Z,2.27
2019-03-15T02:19:35.415Z,2.62
2019-03-15T02:22:04.275Z,2.15
2019-03-15T02:24:32.902Z,1.90
2019-03-15T02:27:01.513Z,2.20
2019-03-15T02:29:30.165Z,1.95
2019-03-15T02:31:58.751Z,2.77
2019-03-15T02:34:27.715Z,2.20
2019-03-15T02:36:56.364Z,2.30
2019-03-15T02:39:25.225Z,2.30
2019-03-15T02:41:53.803Z,2.75
2019-03-15T02:44:22.414Z,2.27
2019-03-15T02:46:52.325Z,2.22
2019-03-15T02:49:21.359Z,3.17
2019-03-15T02:51:50.223Z,1.70
2019-03-15T02:54:18.984Z,2.15
2019-03-15T02:56:47.604Z,2.62
2019-03-15T02:59:16.213Z,2.17
2019-03-15T03:01:44.833Z,2.60
2019-03-15T03:04:14.139Z,2.45
2019-03-15T03:06:43.024Z,1.80
2019-03-15T03:09:12.126Z,2.00
2019-03-15T03:11:40.779Z,2.27
2019-03-15T03:14:09.391Z,2.65
2019-03-15T03:16:38.001Z,2.10
2019-03-15T03:19:06.595Z,2.35
2019-03-15T03:21:35.223Z,2.20
2019-03-15T03:24:03.851Z,2.55
2019-03-15T03:26:32.467Z,2.40
2019-03-15T03:29:01.137Z,2.05
2019-03-15T03:31:29.771Z,3.70
2019-03-15T03:33:58.530Z,2.52
2019-03-15T03:36:27.105Z,2.05
2019-03-15T03:38:55.703Z,2.42
2019-03-15T03:41:24.320Z,2.72
2019-03-15T03:43:52.984Z,2.60
2019-03-15T03:46:21.613Z,2.95
2019-03-15T03:48:50.365Z,3.22
2019-03-15T03:51:18.992Z,2.70
2019-03-15T03:53:47.587Z,2.85
2019-03-15T03:56:17.410Z,2.15
2019-03-15T03:58:46.397Z,3.02
2019-03-15T04:01:15.067Z,2.87
2019-03-15T04:03:43.734Z,3.20
2019-03-15T04:06:12.426Z,2.67
2019-03-15T04:08:41.133Z,3.02
2019-03-15T04:11:09.739Z,2.40
2019-03-15T04:13:38.360Z,2.70
2019-03-15T04:16:07.138Z,2.30
2019-03-15T04:18:35.942Z,2.85
2019-03-15T04:21:04.625Z,3.70
2019-03-15T04:23:33.246Z,3.30
2019-03-15T04:26:02.409Z,4.67
2019-03-15T04:28:31.045Z,2.87
2019-03-15T04:30:59.654Z,3.12
2019-03-15T04:33:28.332Z,3.08
2019-03-15T04:35:56.958Z,2.98
2019-03-15T04:38:25.610Z,2.40
2019-03-15T04:40:54.200Z,2.92
2019-03-15T04:43:22.842Z,3.40
2019-03-15T04:45:51.455Z,2.95
2019-03-15T04:48:20.072Z,2.80
2019-03-15T04:50:48.666Z,2.80
2019-03-15T04:53:17.292Z,3.20
2019-03-15T04:55:45.906Z,3.08
2019-03-15T04:58:14.537Z,3.05
2019-03-15T05:00:43.187Z,2.42
2019-03-15T05:03:11.804Z,2.87
2019-03-15T05:05:40.435Z,2.70
2019-03-15T05:08:09.032Z,3.20
2019-03-15T05:10:37.669Z,3.15
2019-03-15T05:13:06.257Z,3.08
2019-03-15T05:15:34.870Z,3.10
2019-03-15T05:18:03.476Z,2.77
2019-03-15T05:20:32.182Z,3.52
2019-03-15T05:23:00.823Z,3.05
2019-03-15T05:25:30.047Z,3.05
2019-03-15T05:27:58.712Z,2.90
2019-03-15T05:30:27.302Z,2.83
2019-03-15T05:32:55.938Z,2.92
2019-03-15T05:35:24.564Z,2.70
2019-03-15T05:37:53.161Z,2.25
2019-03-15T05:40:21.775Z,2.75
2019-03-15T05:42:50.390Z,2.33
2019-03-15T05:45:19.023Z,3.08
2019-03-15T05:47:47.693Z,3.37
2019-03-15T05:50:16.316Z,3.60
2019-03-15T05:52:44.907Z,3.83
2019-03-15T05:55:13.639Z,4.10
2019-03-15T05:57:42.311Z,3.08
2019-03-15T06:00:12.415Z,3.35
2019-03-15T06:02:41.094Z,3.60
2019-03-15T06:05:09.849Z,2.95
2019-03-15T06:07:38.477Z,4.00
2019-03-15T06:10:07.880Z,3.70
2019-03-15T06:12:36.560Z,4.37
2019-03-15T06:15:05.331Z,4.80
2019-03-15T06:17:33.960Z,4.67
2019-03-15T06:20:02.555Z,3.75
2019-03-15T06:22:31.181Z,4.60
2019-03-15T06:24:59.792Z,5.95
2019-03-15T06:27:31.073Z,3.65
2019-03-15T06:29:58.803Z,4.70
2019-03-15T06:32:27.430Z,4.20
2019-03-15T06:34:56.043Z,4.22
2019-03-15T06:37:24.733Z,4.25
2019-03-15T06:39:53.337Z,4.62
2019-03-15T06:42:22.067Z,3.90
2019-03-15T06:44:57.786Z,4.03
2019-03-15T06:47:21.048Z,4.20
2019-03-15T06:49:49.652Z,4.92
2019-03-15T06:52:18.507Z,5.35
2019-03-15T06:54:47.100Z,3.98
2019-03-15T06:57:15.781Z,5.22
2019-03-15T06:59:44.383Z,5.00
2019-03-15T07:02:13.047Z,4.87
2019-03-15T07:04:41.691Z,6.97
2019-03-15T07:07:10.525Z,4.60
2019-03-15T07:09:39.394Z,5.25
2019-03-15T07:12:09.638Z,4.00
2019-03-15T07:14:38.334Z,3.80
2019-03-15T07:17:06.957Z,4.58
2019-03-15T07:19:35.562Z,3.70
2019-03-15T07:22:04.234Z,5.15
2019-03-15T07:24:32.917Z,5.95
2019-03-15T07:27:12.141Z,4.95
2019-03-15T07:29:32.092Z,4.42
2019-03-15T07:32:00.777Z,5.58
2019-03-15T07:34:29.462Z,4.78
2019-03-15T07:36:58.145Z,4.72
2019-03-15T07:39:26.933Z,5.17
2019-03-15T07:41:55.523Z,4.95
2019-03-15T07:44:24.127Z,6.03
2019-03-15T07:46:52.804Z,5.65
2019-03-15T07:49:21.386Z,6.42
2019-03-15T07:51:50.039Z,7.47
2019-03-15T07:54:18.658Z,7.62
2019-03-15T07:56:47.272Z,9.08
2019-03-15T07:59:15.913Z,7.75
2019-03-15T08:01:44.515Z,8.40
2019-03-15T08:04:17.031Z,9.88
2019-03-15T08:06:43.503Z,10.82
2019-03-15T08:09:12.112Z,9.63
2019-03-15T08:11:40.836Z,9.23
2019-03-15T08:14:09.453Z,10.38
2019-03-15T08:16:38.062Z,9.90
2019-03-15T08:19:06.698Z,10.87
2019-03-15T08:21:35.416Z,9.30
2019-03-15T08:24:04.115Z,9.18
2019-03-15T08:26:32.906Z,9.48
2019-03-15T08:29:01.645Z,11.22
2019-03-15T08:31:30.402Z,10.13
2019-03-15T08:33:59.034Z,11.00
2019-03-15T08:36:27.796Z,11.22
2019-03-15T08:38:56.551Z,10.80
2019-03-15T08:41:25.341Z,10.60
2019-03-15T08:43:53.968Z,10.78
2019-03-15T08:46:22.600Z,9.53
2019-03-15T08:48:51.248Z,9.25
2019-03-15T08:51:20.083Z,9.88
2019-03-15T08:53:48.689Z,8.95
2019-03-15T08:56:17.306Z,9.60
2019-03-15T08:58:45.926Z,8.90
2019-03-15T09:01:14.578Z,9.68
2019-03-15T09:03:43.287Z,10.30
2019-03-15T09:06:11.996Z,8.55
2019-03-15T09:08:40.601Z,9.20
2019-03-15T09:11:09.218Z,8.50
2019-03-15T09:13:37.940Z,7.95
2019-03-15T09:16:06.763Z,7.37
2019-03-15T09:18:35.355Z,8.13
2019-03-15T09:21:03.985Z,8.93
2019-03-15T09:23:32.670Z,12.58
2019-03-15T09:26:01.310Z,10.30
2019-03-15T09:28:30.032Z,9.03
2019-03-15T09:30:58.687Z,10.93
2019-03-15T09:33:27.318Z,9.43
2019-03-15T09:35:56.129Z,10.95
2019-03-15T09:38:24.837Z,10.88
2019-03-15T09:40:53.491Z,10.23
2019-03-15T09:43:22.145Z,10.10
2019-03-15T09:45:50.764Z,12.80
2019-03-15T09:48:19.364Z,9.60
2019-03-15T09:50:51.601Z,11.08
2019-03-15T09:53:18.336Z,15.08
2019-03-15T09:55:46.945Z,13.28
2019-03-15T09:58:15.608Z,11.68
2019-03-15T10:00:44.292Z,13.00
2019-03-15T10:03:22.083Z,11.22
2019-03-15T10:05:43.286Z,12.40
2019-03-15T10:08:11.928Z,11.30
2019-03-15T10:10:40.632Z,11.63
2019-03-15T10:13:09.364Z,9.80
2019-03-15T10:15:38.009Z,11.20
2019-03-15T10:18:06.688Z,11.12
2019-03-15T10:20:35.291Z,9.80
2019-03-15T10:23:06.225Z,10.55
2019-03-15T10:25:45.947Z,9.58
2019-03-15T10:28:04.739Z,9.18
2019-03-15T10:30:33.354Z,12.43
2019-03-15T10:33:02.096Z,8.90
2019-03-15T10:35:30.696Z,11.88
2019-03-15T10:37:59.390Z,9.40
2019-03-15T10:40:28.061Z,18.87
2019-03-15T10:42:56.682Z,10.35
2019-03-15T10:45:25.308Z,79.42
2019-03-15T10:47:55.485Z,16.15
2019-03-15T10:50:24.101Z,8.83
2019-03-15T10:52:53.931Z,18.50
2019-03-15T10:55:22.903Z,7.87
2019-03-15T10:57:51.520Z,7.77
2019-03-15T11:00:20.238Z,7.92
2019-03-15T11:02:48.998Z,6.53
2019-03-15T11:05:17.735Z,6.33
2019-03-15T11:07:46.427Z,6.80
2019-03-15T11:10:15.313Z,5.60
2019-03-15T11:12:44.403Z,6.20
2019-03-15T11:15:13.272Z,5.33
2019-03-15T11:17:42.025Z,4.80
2019-03-15T11:20:10.841Z,4.72
2019-03-15T11:22:39.520Z,4.93
2019-03-15T11:25:08.280Z,4.90
2019-03-15T11:27:37.118Z,3.85
2019-03-15T11:30:06.017Z,4.90
2019-03-15T11:32:35.017Z,3.93
2019-03-15T11:35:03.837Z,4.40
2019-03-15T11:37:32.697Z,4.60
2019-03-15T11:40:01.283Z,4.80
2019-03-15T11:42:29.926Z,4.37
2019-03-15T11:44:58.538Z,5.22
2019-03-15T11:47:27.270Z,5.17
2019-03-15T11:49:55.979Z,5.00
2019-03-15T11:52:24.595Z,4.53
2019-03-15T11:54:53.284Z,4.23
2019-03-15T11:57:22.018Z,1.77
2019-03-15T11:59:50.822Z,1.20
2019-03-15T12:02:19.605Z,0.80
2019-03-15T12:04:48.310Z,0.50
2019-03-15T12:07:16.924Z,0.60
2019-03-15T12:09:45.794Z,0.37
2019-03-15T12:12:14.408Z,0.83
2019-03-15T12:14:43.028Z,0.40
2019-03-15T12:17:11.674Z,0.40
2019-03-15T12:19:40.324Z,0.40
2019-03-15T12:22:09.025Z,0.50
2019-03-15T12:24:37.608Z,0.50
2019-03-15T12:27:06.262Z,0.50
2019-03-15T12:29:34.921Z,0.40
2019-03-15T12:32:03.524Z,0.50
2019-03-15T12:34:32.121Z,0.50
2019-03-15T12:37:00.754Z,0.40
2019-03-15T12:39:29.378Z,0.47
2019-03-15T12:41:58.033Z,0.33
2019-03-15T12:44:26.615Z,0.60
2019-03-15T12:46:55.263Z,0.40
2019-03-15T12:49:25.665Z,0.50
2019-03-15T12:51:54.431Z,0.40
2019-03-15T12:54:23.011Z,0.47
2019-03-15T12:56:54.009Z,0.50
2019-03-15T12:59:21.982Z,0.40
2019-03-15T13:01:50.587Z,0.40
2019-03-15T13:04:19.187Z,0.40
2019-03-15T13:06:47.807Z,0.43
2019-03-15T13:09:16.394Z,0.40
2019-03-15T13:11:44.978Z,0.40
2019-03-15T13:14:13.592Z,0.40
2019-03-15T13:16:42.206Z,0.40
2019-03-15T13:19:10.872Z,0.50
2019-03-15T13:21:39.466Z,0.40
2019-03-15T13:24:08.062Z,0.40
2019-03-15T13:26:36.652Z,0.40
2019-03-15T13:29:05.266Z,0.40
2019-03-15T13:31:33.864Z,0.50
2019-03-15T13:34:02.478Z,0.40
2019-03-15T13:36:31.116Z,0.40
2019-03-15T13:38:59.721Z,0.40
2019-03-15T13:41:28.299Z,0.40
2019-03-15T13:43:56.907Z,0.43
2019-03-15T13:46:25.516Z,0.40
2019-03-15T13:48:54.146Z,1.10
2019-03-15T13:51:22.934Z,0.53
2019-03-15T13:53:51.523Z,0.40
2019-03-15T13:56:20.156Z,0.50
2019-03-15T13:58:57.185Z,0.60
2019-03-15T14:01:19.239Z,0.50
2019-03-15T14:03:47.863Z,0.40
2019-03-15T14:06:16.475Z,0.50
2019-03-15T14:08:45.091Z,0.60
2019-03-15T14:11:13.702Z,0.40
2019-03-15T14:13:42.329Z,0.40
2019-03-15T14:16:10.945Z,0.40
2019-03-15T14:18:39.669Z,0.43
2019-03-15T14:21:08.367Z,0.50
2019-03-15T14:23:37.703Z,0.40
2019-03-15T14:26:06.310Z,0.40
2019-03-15T14:28:35.070Z,0.50
2019-03-15T14:31:03.666Z,0.40
2019-03-15T14:33:32.367Z,0.50
2019-03-15T14:36:03.891Z,0.50
2019-03-15T14:38:31.429Z,0.50
2019-03-15T14:41:00.086Z,0.50
2019-03-15T14:43:28.717Z,0.43
2019-03-15T14:45:57.472Z,0.50
2019-03-15T14:48:26.073Z,0.53
2019-03-15T14:50:54.705Z,0.50
2019-03-15T14:53:23.310Z,0.40
2019-03-15T14:55:52.002Z,0.40
2019-03-15T14:58:20.656Z,0.40
2019-03-15T15:00:49.241Z,0.40
2019-03-15T15:03:17.819Z,0.57
2019-03-15T15:05:47.459Z,0.40
2019-03-15T15:08:16.114Z,0.40
2019-03-15T15:10:44.712Z,0.40
2019-03-15T15:13:13.316Z,0.40
2019-03-15T15:15:41.929Z,0.40
2019-03-15T15:18:10.550Z,0.40
2019-03-15T15:20:39.164Z,0.40
2019-03-15T15:23:07.827Z,0.70
2019-03-15T15:25:36.501Z,0.50
2019-03-15T15:28:05.257Z,0.60
2019-03-15T15:30:33.883Z,0.60
2019-03-15T15:33:02.521Z,0.50
2019-03-15T15:35:31.159Z,0.70
2019-03-15T15:37:59.748Z,0.47
2019-03-15T15:40:28.411Z,0.40
2019-03-15T15:42:57.002Z,0.40
2019-03-15T15:45:25.614Z,0.40
2019-03-15T15:47:54.388Z,0.57
2019-03-15T15:50:23.082Z,0.47
2019-03-15T15:52:51.625Z,0.43
2019-03-15T15:55:20.282Z,0.40
2019-03-15T15:57:48.899Z,0.40
2019-03-15T16:00:17.529Z,0.40
2019-03-15T16:02:46.299Z,0.40
2019-03-15T16:05:14.964Z,0.50
2019-03-15T16:07:43.624Z,0.50
2019-03-15T16:10:12.420Z,0.40
2019-03-15T16:12:41.017Z,0.40
2019-03-15T16:15:10.359Z,0.40
2019-03-15T16:17:38.947Z,0.50
2019-03-15T16:20:08.241Z,0.40
2019-03-15T16:22:36.934Z,0.63
2019-03-15T16:25:05.610Z,0.60
2019-03-15T16:27:34.218Z,0.40
2019-03-15T16:30:02.846Z,0.40
2019-03-15T16:32:31.444Z,0.43
2019-03-15T16:35:00.051Z,0.40
2019-03-15T16:37:28.683Z,0.60
2019-03-15T16:39:57.309Z,0.50
2019-03-15T16:42:25.925Z,0.40
2019-03-15T16:44:54.536Z,0.50
2019-03-15T16:47:23.148Z,0.40
2019-03-15T16:49:51.757Z,0.50
2019-03-15T16:52:20.443Z,0.50
2019-03-15T16:54:49.030Z,0.40
2019-03-15T16:57:17.731Z,0.50
2019-03-15T16:59:46.315Z,0.40
2019-03-15T17:02:15.055Z,0.40
2019-03-15T17:04:43.714Z,0.60
2019-03-15T17:07:13.189Z,0.50
2019-03-15T17:09:41.880Z,0.50
2019-03-15T17:12:10.505Z,0.40
2019-03-15T17:14:39.125Z,0.40
2019-03-15T17:17:07.760Z,0.50
2019-03-15T17:19:36.475Z,0.40
2019-03-15T17:22:05.156Z,0.60
2019-03-15T17:24:33.763Z,0.60
2019-03-15T17:27:02.360Z,0.60
2019-03-15T17:29:30.973Z,0.70
2019-03-15T17:31:59.668Z,2.87
2019-03-15T17:34:28.265Z,0.40
2019-03-15T17:37:06.682Z,0.83
2019-03-15T17:39:27.302Z,0.57
2019-03-15T17:41:55.895Z,0.63
2019-03-15T17:44:24.521Z,0.60
2019-03-15T17:46:53.227Z,0.53
2019-03-15T17:49:21.822Z,0.50
2019-03-15T17:51:50.442Z,0.67
2019-03-15T17:54:22.266Z,0.40
2019-03-15T17:56:50.880Z,0.83
2019-03-15T17:59:19.502Z,2.27
2019-03-15T18:01:48.084Z,0.60
2019-03-15T18:04:16.957Z,0.90
2019-03-15T18:06:45.569Z,0.50
2019-03-15T18:09:14.187Z,4.53
2019-03-15T18:11:42.877Z,0.70
2019-03-15T18:14:11.493Z,0.40
2019-03-15T18:16:40.089Z,0.60
2019-03-15T18:19:09.057Z,0.60
2019-03-15T18:21:37.645Z,0.50
2019-03-15T18:24:06.426Z,0.40
2019-03-15T18:26:35.065Z,0.57
2019-03-15T18:29:03.943Z,0.40
2019-03-15T18:31:32.529Z,0.83
2019-03-15T18:34:01.143Z,0.80
2019-03-15T18:36:29.763Z,0.90
2019-03-15T18:39:00.895Z,0.50
2019-03-15T18:41:30.618Z,0.50
2019-03-15T18:44:04.380Z,0.87
2019-03-15T18:46:35.196Z,0.60
2019-03-15T18:49:04.676Z,0.50
2019-03-15T18:51:45.593Z,0.50
2019-03-15T18:54:20.585Z,0.60
2019-03-15T18:56:49.900Z,0.60
2019-03-15T18:59:23.324Z,0.50
2019-03-15T19:01:57.742Z,0.63
2019-03-15T19:04:29.467Z,0.50
2019-03-15T19:06:59.029Z,0.63
2019-03-15T19:09:28.704Z,0.73
2019-03-15T19:11:57.767Z,0.83
2019-03-15T19:14:26.601Z,0.60
2019-03-15T19:16:59.774Z,0.60
2019-03-15T19:19:28.311Z,0.40
2019-03-15T19:21:59.185Z,0.60
2019-03-15T19:24:29.883Z,0.80
2019-03-15T19:26:59.444Z,0.60
2019-03-15T19:29:29.532Z,0.97
2019-03-15T19:32:36.210Z,1.00
2019-03-15T19:35:06.012Z,0.90
2019-03-15T19:37:34.907Z,0.57
2019-03-15T19:40:05.251Z,0.70
2019-03-15T19:42:33.992Z,0.80
2019-03-15T19:45:04.520Z,1.00
2019-03-15T19:47:43.892Z,2.00
2019-03-15T19:50:13.845Z,0.60
2019-03-15T19:52:44.110Z,0.50
2019-03-15T19:55:13.267Z,0.50
2019-03-15T19:57:42.092Z,0.60
2019-03-15T20:00:13.081Z,0.80
2019-03-15T20:02:41.914Z,0.70
2019-03-15T20:05:11.104Z,0.50
2019-03-15T20:07:39.988Z,0.53
2019-03-15T20:10:11.486Z,0.40
2019-03-15T20:12:41.229Z,0.40
2019-03-15T20:15:11.241Z,0.60
2019-03-15T20:17:50.808Z,0.50
2019-03-15T20:20:21.996Z,0.43
2019-03-15T20:22:51.329Z,0.50
2019-03-15T20:25:20.504Z,0.50
2019-03-15T20:27:51.468Z,0.50
2019-03-15T20:30:25.679Z,0.60
2019-03-15T20:32:51.548Z,0.53
2019-03-15T20:35:21.760Z,0.50
2019-03-15T20:37:50.608Z,0.60
2019-03-15T20:40:19.452Z,0.53
2019-03-15T20:42:49.700Z,0.40
2019-03-15T20:45:22.084Z,0.50
2019-03-15T20:47:50.945Z,0.50
2019-03-15T20:50:19.767Z,0.40
2019-03-15T20:52:50.577Z,0.40
2019-03-15T20:55:19.444Z,0.50
2019-03-15T20:57:48.544Z,0.50
2019-03-15T21:00:17.428Z,0.50
2019-03-15T21:02:46.376Z,0.50
2019-03-15T21:05:15.619Z,0.60
2019-03-15T21:07:44.470Z,1.00
2019-03-15T21:10:13.009Z,0.70
2019-03-15T21:12:41.750Z,0.60
2019-03-15T21:15:11.269Z,0.53
2019-03-15T21:17:40.116Z,0.53
2019-03-15T21:20:11.469Z,0.90
2019-03-15T21:22:40.339Z,0.43
2019-03-15T21:25:09.609Z,0.90
2019-03-15T21:27:38.343Z,0.60
2019-03-15T21:30:09.505Z,0.67
2019-03-15T21:32:38.195Z,0.50
2019-03-15T21:35:10.021Z,0.50
2019-03-15T21:37:39.018Z,0.50
2019-03-15T21:40:09.105Z,0.50
2019-03-15T21:42:37.945Z,0.50
2019-03-15T21:45:06.938Z,0.40
2019-03-15T21:47:35.734Z,0.50
2019-03-15T21:50:04.922Z,0.60
2019-03-15T21:52:33.667Z,0.70
2019-03-15T21:55:02.486Z,0.50
2019-03-15T21:57:31.528Z,0.50
2019-03-15T22:00:00.599Z,0.50
2019-03-15T22:02:29.523Z,0.40
2019-03-15T22:04:58.856Z,0.40
2019-03-15T22:07:28.097Z,0.47
2019-03-15T22:09:57.091Z,0.40
2019-03-15T22:12:25.797Z,0.50
2019-03-15T22:14:54.704Z,0.40
2019-03-15T22:17:24.727Z,0.40
2019-03-15T22:19:54.466Z,0.40
2019-03-15T22:22:24.099Z,0.40
2019-03-15T22:24:54.055Z,0.40
2019-03-15T22:27:23.922Z,0.50
2019-03-15T22:29:54.632Z,0.40
2019-03-15T22:32:30.298Z,0.50
2019-03-15T22:34:59.197Z,1.33
2019-03-15T22:37:30.820Z,0.60
2019-03-15T22:40:01.467Z,0.60
2019-03-15T22:42:31.424Z,0.40
2019-03-15T22:45:01.170Z,0.33
2019-03-15T22:47:33.930Z,0.30
2019-03-15T22:50:05.945Z,0.40
2019-03-15T22:52:35.250Z,0.40
2019-03-15T22:55:04.196Z,0.50
2019-03-15T22:57:33.032Z,0.40
2019-03-15T23:00:01.787Z,0.40
2019-03-15T23:02:30.608Z,0.40
2019-03-15T23:04:59.387Z,0.40
2019-03-15T23:07:28.081Z,0.50
2019-03-15T23:09:57.121Z,0.40
2019-03-15T23:12:26.134Z,0.60
2019-03-15T23:14:55.121Z,0.60
2019-03-15T23:17:24.292Z,0.50
2019-03-15T23:19:53.097Z,0.40
2019-03-15T23:22:24.196Z,0.50
2019-03-15T23:24:54.425Z,0.60
2019-03-15T23:27:24.741Z,0.50
2019-03-15T23:29:53.564Z,0.50
2019-03-15T23:32:22.449Z,0.60
2019-03-15T23:34:51.223Z,0.40
2019-03-15T23:37:19.971Z,0.50
2019-03-15T23:39:52.889Z,0.50
2019-03-15T23:42:21.665Z,0.43
2019-03-15T23:44:50.367Z,0.50
2019-03-15T23:47:19.193Z,0.40
2019-03-15T23:49:47.946Z,0.40
2019-03-15T23:52:16.783Z,0.40
2019-03-15T23:54:46.944Z,0.50
2019-03-15T23:57:15.665Z,0.40
2019-03-15T23:59:44.447Z,0.40
